createdAt,value
2017-10-27T00:00:40.350Z,1018.03
2017-10-27T00:01:49.676Z,1018.05
2017-10-27T00:02:58.563Z,1018.06
2017-10-27T00:04:07.297Z,1017.98
2017-10-27T00:05:17.616Z,1017.94
2017-10-27T00:06:26.932Z,1017.95
2017-10-27T00:07:35.966Z,1018.05
2017-10-27T00:08:44.624Z,1018.02
2017-10-27T00:09:53.964Z,1018.02
2017-10-27T00:11:03.635Z,1018.02
2017-10-27T00:12:12.315Z,1017.99
2017-10-27T00:13:20.972Z,1017.95
2017-10-27T00:14:29.955Z,1018.01
2017-10-27T00:15:38.949Z,1018
2017-10-27T00:16:47.947Z,1018
2017-10-27T00:17:57.577Z,1018.03
2017-10-27T00:19:06.555Z,1018.04
2017-10-27T00:20:15.923Z,1018.02
2017-10-27T00:21:24.914Z,1018
2017-10-27T00:22:33.571Z,1017.99
2017-10-27T00:23:42.898Z,1018.03
2017-10-27T00:24:51.893Z,1018.01
2017-10-27T00:26:00.553Z,1017.98
2017-10-27T00:27:09.872Z,1017.96
2017-10-27T00:28:18.866Z,1017.96
2017-10-27T00:29:27.907Z,1017.98
2017-10-27T00:30:36.883Z,1017.96
2017-10-27T00:31:46.186Z,1018.01
2017-10-27T00:32:55.513Z,1018.02
2017-10-27T00:34:04.163Z,1018.01
2017-10-27T00:35:12.929Z,1018.03
2017-10-27T00:36:21.583Z,1018.03
2017-10-27T00:37:30.565Z,1017.99
2017-10-27T00:38:39.574Z,1018
2017-10-27T00:39:48.558Z,1018.03
2017-10-27T00:40:58.190Z,1018.04
2017-10-27T00:42:07.188Z,1018.07
2017-10-27T00:43:16.194Z,1018.04
2017-10-27T00:44:25.839Z,1018.05
2017-10-27T00:45:34.810Z,1018.05
2017-10-27T00:46:43.794Z,1018.03
2017-10-27T00:47:52.785Z,1018
2017-10-27T00:49:02.430Z,1018.1
2017-10-27T00:50:11.742Z,1018.11
2017-10-27T00:51:21.480Z,1018.17
2017-10-27T00:52:30.831Z,1018.19
2017-10-27T00:53:39.483Z,1018.24
2017-10-27T00:54:48.795Z,1018.18
2017-10-27T00:55:57.782Z,1018.19
2017-10-27T00:57:07.105Z,1018.09
2017-10-27T00:58:17.330Z,1018.08
2017-10-27T00:59:26.382Z,1018.12
2017-10-27T01:00:35.681Z,1018.13
2017-10-27T01:01:45.396Z,1018.08
2017-10-27T01:02:54.019Z,1018.07
2017-10-27T01:04:03.010Z,1018.12
2017-10-27T01:05:11.994Z,1018.14
2017-10-27T01:06:21.000Z,1018.11
2017-10-27T01:07:29.988Z,1018.15
2017-10-27T01:08:39.048Z,1018.15
2017-10-27T01:09:48.043Z,1018.15
2017-10-27T01:10:57.038Z,1018.11
2017-10-27T01:12:06.352Z,1018.13
2017-10-27T01:13:15.669Z,1018.13
2017-10-27T01:14:25.025Z,1018.06
2017-10-27T01:15:33.707Z,1017.98
2017-10-27T01:16:43.013Z,1017.95
2017-10-27T01:17:52.357Z,1017.9
2017-10-27T01:19:01.672Z,1017.86
2017-10-27T01:20:10.651Z,1017.9
2017-10-27T01:21:19.631Z,1017.97
2017-10-27T01:22:28.610Z,1017.98
2017-10-27T01:23:37.915Z,1017.99
2017-10-27T01:24:46.591Z,1018.02
2017-10-27T01:25:56.258Z,1018
2017-10-27T01:27:05.251Z,1018.02
2017-10-27T01:28:14.566Z,1018.01
2017-10-27T01:29:23.876Z,1018.01
2017-10-27T01:30:32.878Z,1017.98
2017-10-27T01:31:42.527Z,1018
2017-10-27T01:32:51.837Z,1017.95
2017-10-27T01:34:00.814Z,1017.95
2017-10-27T01:35:10.127Z,1017.95
2017-10-27T01:36:18.776Z,1017.97
2017-10-27T01:37:27.442Z,1017.97
2017-10-27T01:38:36.421Z,1017.96
2017-10-27T01:39:45.402Z,1017.97
2017-10-27T01:40:54.382Z,1017.96
2017-10-27T01:42:04.025Z,1017.94
2017-10-27T01:43:12.679Z,1017.91
2017-10-27T01:44:21.354Z,1017.94
2017-10-27T01:45:30.360Z,1017.9
2017-10-27T01:46:39.357Z,1017.91
2017-10-27T01:47:48.346Z,1017.88
2017-10-27T01:48:57.338Z,1017.86
2017-10-27T01:50:05.971Z,1017.76
2017-10-27T01:51:15.012Z,1017.76
2017-10-27T01:52:23.679Z,1017.71
2017-10-27T01:53:33.319Z,1017.7
2017-10-27T01:54:42.310Z,1017.68
2017-10-27T01:55:50.969Z,1017.7
2017-10-27T01:57:00.276Z,1017.67
2017-10-27T01:58:09.258Z,1017.66
2017-10-27T01:59:18.569Z,1017.66
2017-10-27T02:00:27.575Z,1017.69
2017-10-27T02:01:36.556Z,1017.69
2017-10-27T02:02:45.873Z,1017.71
2017-10-27T02:03:55.186Z,1017.73
2017-10-27T02:05:04.162Z,1017.72
2017-10-27T02:06:12.823Z,1017.65
2017-10-27T02:07:22.128Z,1017.65
2017-10-27T02:08:31.455Z,1017.67
2017-10-27T02:09:41.089Z,1017.65
2017-10-27T02:10:50.076Z,1017.62
2017-10-27T02:11:59.090Z,1017.58
2017-10-27T02:13:08.744Z,1017.59
2017-10-27T02:14:17.746Z,1017.66
2017-10-27T02:15:26.398Z,1017.64
2017-10-27T02:16:35.394Z,1017.7
2017-10-27T02:17:44.382Z,1017.68
2017-10-27T02:18:53.041Z,1017.67
2017-10-27T02:20:02.702Z,1017.71
2017-10-27T02:21:12.350Z,1017.65
2017-10-27T02:22:21.333Z,1017.69
2017-10-27T02:23:30.318Z,1017.71
2017-10-27T02:24:39.625Z,1017.71
2017-10-27T02:25:48.609Z,1017.68
2017-10-27T02:26:57.271Z,1017.63
2017-10-27T02:28:06.575Z,1017.6
2017-10-27T02:29:15.555Z,1017.61
2017-10-27T02:30:24.890Z,1017.62
2017-10-27T02:31:34.214Z,1017.64
2017-10-27T02:32:43.202Z,1017.64
2017-10-27T02:33:52.524Z,1017.64
2017-10-27T02:35:01.534Z,1017.62
2017-10-27T02:36:10.519Z,1017.64
2017-10-27T02:37:19.841Z,1017.65
2017-10-27T02:38:29.154Z,1017.66
2017-10-27T02:39:38.469Z,1017.69
2017-10-27T02:40:47.792Z,1017.68
2017-10-27T02:41:56.771Z,1017.67
2017-10-27T02:43:05.754Z,1017.68
2017-10-27T02:44:14.741Z,1017.68
2017-10-27T02:45:23.734Z,1017.69
2017-10-27T02:46:33.085Z,1017.69
2017-10-27T02:47:41.749Z,1017.68
2017-10-27T02:48:50.739Z,1017.66
2017-10-27T02:49:59.406Z,1017.64
2017-10-27T02:51:08.393Z,1017.65
2017-10-27T02:52:17.382Z,1017.64
2017-10-27T02:53:26.379Z,1017.68
2017-10-27T02:54:35.353Z,1017.69
2017-10-27T02:55:44.343Z,1017.71
2017-10-27T02:56:52.997Z,1017.72
2017-10-27T02:58:01.969Z,1017.72
2017-10-27T02:59:10.947Z,1017.74
2017-10-27T03:00:20.288Z,1017.72
2017-10-27T03:01:29.279Z,1017.74
2017-10-27T03:02:38.597Z,1017.73
2017-10-27T03:03:48.236Z,1017.76
2017-10-27T03:04:57.211Z,1017.77
2017-10-27T03:06:06.196Z,1017.8
2017-10-27T03:07:15.171Z,1017.76
2017-10-27T03:08:24.155Z,1017.83
2017-10-27T03:09:33.457Z,1017.85
2017-10-27T03:10:42.447Z,1017.85
2017-10-27T03:11:51.096Z,1017.82
2017-10-27T03:13:00.431Z,1017.82
2017-10-27T03:14:09.755Z,1017.85
2017-10-27T03:15:19.717Z,1017.83
2017-10-27T03:16:28.371Z,1017.83
2017-10-27T03:17:37.673Z,1017.89
2017-10-27T03:18:46.660Z,1017.88
2017-10-27T03:19:55.652Z,1017.83
2017-10-27T03:21:04.302Z,1017.83
2017-10-27T03:22:13.943Z,1017.91
2017-10-27T03:23:23.237Z,1017.95
2017-10-27T03:24:32.542Z,1017.93
2017-10-27T03:25:41.520Z,1017.95
2017-10-27T03:26:50.484Z,1017.91
2017-10-27T03:27:59.130Z,1017.93
2017-10-27T03:29:08.115Z,1017.91
2017-10-27T03:30:17.413Z,1017.92
2017-10-27T03:31:27.047Z,1017.93
2017-10-27T03:32:36.023Z,1017.95
2017-10-27T03:33:45.330Z,1017.9
2017-10-27T03:34:54.643Z,1017.93
2017-10-27T03:36:03.629Z,1017.95
2017-10-27T03:37:12.942Z,1018.01
2017-10-27T03:38:22.273Z,1018.01
2017-10-27T03:39:31.578Z,1018.03
2017-10-27T03:40:40.886Z,1018.04
2017-10-27T03:41:49.871Z,1018.05
2017-10-27T03:42:58.925Z,1018.04
2017-10-27T03:44:07.919Z,1018.05
2017-10-27T03:45:16.590Z,1018.02
2017-10-27T03:46:25.895Z,1018.05
2017-10-27T03:47:35.189Z,1018.06
2017-10-27T03:48:43.868Z,1018
2017-10-27T03:49:53.197Z,1018.05
2017-10-27T03:51:02.496Z,1017.99
2017-10-27T03:52:11.153Z,1018.01
2017-10-27T03:53:20.131Z,1018.06
2017-10-27T03:54:29.453Z,1018.1
2017-10-27T03:55:38.438Z,1018.09
2017-10-27T03:56:47.753Z,1018.13
2017-10-27T03:57:56.732Z,1018.16
2017-10-27T03:59:05.785Z,1018.11
2017-10-27T04:00:15.105Z,1018.14
2017-10-27T04:01:23.764Z,1018.15
2017-10-27T04:02:32.745Z,1018.19
2017-10-27T04:03:42.262Z,1018.14
2017-10-27T04:04:51.600Z,1018.15
2017-10-27T04:06:01.240Z,1018.13
2017-10-27T04:07:09.896Z,1018.14
2017-10-27T04:08:19.261Z,1018.16
2017-10-27T04:09:28.264Z,1018.12
2017-10-27T04:10:37.592Z,1018.16
2017-10-27T04:11:46.257Z,1018.12
2017-10-27T04:12:55.560Z,1018.16
2017-10-27T04:14:04.549Z,1018.16
2017-10-27T04:15:13.525Z,1018.17
2017-10-27T04:16:22.865Z,1018.14
2017-10-27T04:17:32.532Z,1018.14
2017-10-27T04:18:41.865Z,1018.24
2017-10-27T04:19:50.530Z,1018.26
2017-10-27T04:20:59.840Z,1018.28
2017-10-27T04:22:08.847Z,1018.21
2017-10-27T04:23:17.491Z,1018.19
2017-10-27T04:24:26.161Z,1018.22
2017-10-27T04:25:35.149Z,1018.23
2017-10-27T04:26:43.803Z,1018.17
2017-10-27T04:27:52.793Z,1018.14
2017-10-27T04:29:01.446Z,1018.13
2017-10-27T04:30:10.861Z,1018.18
2017-10-27T04:31:19.514Z,1018.26
2017-10-27T04:32:28.499Z,1018.29
2017-10-27T04:33:37.481Z,1018.27
2017-10-27T04:34:46.137Z,1018.32
2017-10-27T04:35:55.479Z,1018.25
2017-10-27T04:37:04.477Z,1018.34
2017-10-27T04:38:13.781Z,1018.29
2017-10-27T04:39:22.782Z,1018.32
2017-10-27T04:40:31.445Z,1018.33
2017-10-27T04:41:40.099Z,1018.34
2017-10-27T04:42:48.752Z,1018.35
2017-10-27T04:43:57.427Z,1018.38
2017-10-27T04:45:06.730Z,1018.31
2017-10-27T04:46:16.044Z,1018.29
2017-10-27T04:47:24.696Z,1018.26
2017-10-27T04:48:33.349Z,1018.29
2017-10-27T04:49:42.641Z,1018.27
2017-10-27T04:50:51.642Z,1018.3
2017-10-27T04:52:00.631Z,1018.28
2017-10-27T04:53:09.945Z,1018.34
2017-10-27T04:54:19.581Z,1018.37
2017-10-27T04:55:28.576Z,1018.34
2017-10-27T04:56:37.872Z,1018.37
2017-10-27T04:57:46.523Z,1018.39
2017-10-27T04:58:55.505Z,1018.31
2017-10-27T05:00:04.472Z,1018.36
2017-10-27T05:01:14.116Z,1018.4
2017-10-27T05:02:22.766Z,1018.37
2017-10-27T05:03:32.059Z,1018.35
2017-10-27T05:04:41.029Z,1018.36
2017-10-27T05:05:50.346Z,1018.43
2017-10-27T05:06:59.979Z,1018.44
2017-10-27T05:08:08.966Z,1018.47
2017-10-27T05:09:17.936Z,1018.46
2017-10-27T05:10:26.913Z,1018.51
2017-10-27T05:11:36.231Z,1018.51
2017-10-27T05:12:44.887Z,1018.57
2017-10-27T05:13:53.856Z,1018.57
2017-10-27T05:15:02.519Z,1018.57
2017-10-27T05:16:11.499Z,1018.52
2017-10-27T05:17:20.804Z,1018.56
2017-10-27T05:18:29.786Z,1018.52
2017-10-27T05:19:38.433Z,1018.54
2017-10-27T05:20:47.748Z,1018.57
2017-10-27T05:21:57.383Z,1018.61
2017-10-27T05:23:06.375Z,1018.6
2017-10-27T05:24:15.031Z,1018.67
2017-10-27T05:25:24.662Z,1018.67
2017-10-27T05:26:33.317Z,1018.68
2017-10-27T05:27:41.970Z,1018.68
2017-10-27T05:28:50.953Z,1018.74
2017-10-27T05:30:00.018Z,1018.74
2017-10-27T05:31:09.370Z,1018.76
2017-10-27T05:32:18.338Z,1018.77
2017-10-27T05:33:27.975Z,1018.72
2017-10-27T05:34:36.649Z,1018.75
2017-10-27T05:35:46.292Z,1018.77
2017-10-27T05:36:55.286Z,1018.8
2017-10-27T05:38:04.621Z,1018.79
2017-10-27T05:39:13.929Z,1018.79
2017-10-27T05:40:23.235Z,1018.78
2017-10-27T05:41:32.549Z,1018.84
2017-10-27T05:42:41.524Z,1018.84
2017-10-27T05:43:50.235Z,1018.87
2017-10-27T05:44:58.890Z,1018.86
2017-10-27T05:46:07.929Z,1018.93
2017-10-27T05:47:16.921Z,1018.96
2017-10-27T05:48:25.896Z,1018.95
2017-10-27T05:49:35.191Z,1018.99
2017-10-27T05:50:44.163Z,1018.97
2017-10-27T05:51:53.491Z,1019
2017-10-27T05:53:02.494Z,1019.01
2017-10-27T05:54:11.790Z,1019.01
2017-10-27T05:55:20.799Z,1019.05
2017-10-27T05:56:29.815Z,1019.08
2017-10-27T05:57:38.816Z,1019.09
2017-10-27T05:58:47.833Z,1019.15
2017-10-27T05:59:56.489Z,1019.17
2017-10-27T06:01:05.476Z,1019.12
2017-10-27T06:02:14.125Z,1019.12
2017-10-27T06:03:23.441Z,1019.14
2017-10-27T06:04:32.426Z,1019.15
2017-10-27T06:05:41.408Z,1019.16
2017-10-27T06:06:50.388Z,1019.24
2017-10-27T06:07:59.054Z,1019.22
2017-10-27T06:09:08.040Z,1019.23
2017-10-27T06:10:17.344Z,1019.23
2017-10-27T06:11:26.331Z,1019.24
2017-10-27T06:12:36.034Z,1019.26
2017-10-27T06:13:45.004Z,1019.29
2017-10-27T06:14:54.319Z,1019.32
2017-10-27T06:16:03.307Z,1019.29
2017-10-27T06:17:12.601Z,1019.31
2017-10-27T06:18:21.572Z,1019.31
2017-10-27T06:19:30.213Z,1019.36
2017-10-27T06:20:39.186Z,1019.35
2017-10-27T06:21:48.510Z,1019.43
2017-10-27T06:22:57.505Z,1019.4
2017-10-27T06:24:07.142Z,1019.4
2017-10-27T06:25:16.143Z,1019.4
2017-10-27T06:26:25.442Z,1019.43
2017-10-27T06:27:34.763Z,1019.45
2017-10-27T06:28:44.077Z,1019.49
2017-10-27T06:29:54.034Z,1019.49
2017-10-27T06:31:02.688Z,1019.53
2017-10-27T06:32:11.694Z,1019.54
2017-10-27T06:33:20.696Z,1019.61
2017-10-27T06:34:29.687Z,1019.61
2017-10-27T06:35:38.691Z,1019.61
2017-10-27T06:36:47.374Z,1019.64
2017-10-27T06:37:56.388Z,1019.67
2017-10-27T06:39:05.379Z,1019.71
2017-10-27T06:40:14.393Z,1019.73
2017-10-27T06:41:23.718Z,1019.76
2017-10-27T06:42:33.029Z,1019.79
2017-10-27T06:43:42.044Z,1019.83
2017-10-27T06:44:51.368Z,1019.85
2017-10-27T06:46:00.060Z,1019.9
2017-10-27T06:47:09.064Z,1019.87
2017-10-27T06:48:18.441Z,1019.88
2017-10-27T06:49:27.422Z,1019.87
2017-10-27T06:50:37.396Z,1019.91
2017-10-27T06:51:46.386Z,1019.85
2017-10-27T06:52:55.395Z,1019.91
2017-10-27T06:54:04.394Z,1019.99
2017-10-27T06:55:13.702Z,1020.03
2017-10-27T06:56:22.376Z,1020.04
2017-10-27T06:57:31.434Z,1020.08
2017-10-27T06:58:40.099Z,1020.07
2017-10-27T06:59:49.103Z,1020.11
2017-10-27T07:00:58.748Z,1020.12
2017-10-27T07:02:08.082Z,1020.08
2017-10-27T07:03:17.087Z,1020.09
2017-10-27T07:04:26.092Z,1020.12
2017-10-27T07:05:35.421Z,1020.14
2017-10-27T07:06:44.119Z,1020.17
2017-10-27T07:07:52.874Z,1020.23
2017-10-27T07:09:01.887Z,1020.24
2017-10-27T07:10:10.899Z,1020.22
2017-10-27T07:11:19.874Z,1020.26
2017-10-27T07:12:28.935Z,1020.27
2017-10-27T07:13:37.918Z,1020.27
2017-10-27T07:14:46.919Z,1020.21
2017-10-27T07:15:55.916Z,1020.24
2017-10-27T07:17:05.234Z,1020.26
2017-10-27T07:18:13.898Z,1020.3
2017-10-27T07:19:22.562Z,1020.29
2017-10-27T07:20:31.241Z,1020.3
2017-10-27T07:21:40.299Z,1020.37
2017-10-27T07:22:50.284Z,1020.35
2017-10-27T07:23:59.327Z,1020.38
2017-10-27T07:25:08.322Z,1020.37
2017-10-27T07:26:17.314Z,1020.37
2017-10-27T07:27:26.609Z,1020.42
2017-10-27T07:28:36.241Z,1020.4
2017-10-27T07:29:46.233Z,1020.43
2017-10-27T07:30:55.573Z,1020.36
2017-10-27T07:32:04.943Z,1020.39
2017-10-27T07:33:14.043Z,1020.4
2017-10-27T07:34:22.765Z,1020.45
2017-10-27T07:35:31.771Z,1020.5
2017-10-27T07:36:40.787Z,1020.48
2017-10-27T07:37:50.060Z,1020.53
2017-10-27T07:38:59.175Z,1020.53
2017-10-27T07:40:09.424Z,1020.55
2017-10-27T07:41:19.255Z,1020.52
2017-10-27T07:42:28.247Z,1020.6
2017-10-27T07:43:36.933Z,1020.66
2017-10-27T07:44:46.310Z,1020.73
2017-10-27T07:45:55.297Z,1020.71
2017-10-27T07:47:04.333Z,1020.74
2017-10-27T07:48:13.343Z,1020.8
2017-10-27T07:49:22.686Z,1020.76
2017-10-27T07:50:31.373Z,1020.79
2017-10-27T07:51:40.765Z,1020.86
2017-10-27T07:52:50.123Z,1020.81
2017-10-27T07:53:59.829Z,1020.89
2017-10-27T07:55:08.491Z,1020.89
2017-10-27T07:56:17.977Z,1020.92
2017-10-27T07:57:27.261Z,1020.96
2017-10-27T07:58:36.286Z,1021
2017-10-27T07:59:44.961Z,1021.01
2017-10-27T08:00:54.315Z,1021.04
2017-10-27T08:02:03.350Z,1021.04
2017-10-27T08:03:13.369Z,1021.05
2017-10-27T08:04:23.517Z,1021.03
2017-10-27T08:05:32.247Z,1021.01
2017-10-27T08:06:41.618Z,1021.1
2017-10-27T08:07:50.349Z,1021.12
2017-10-27T08:08:59.720Z,1021.11
2017-10-27T08:10:09.048Z,1021.18
2017-10-27T08:11:18.340Z,1021.24
2017-10-27T08:12:28.121Z,1021.21
2017-10-27T08:13:38.248Z,1021.29
2017-10-27T08:14:48.614Z,1021.3
2017-10-27T08:15:57.619Z,1021.26
2017-10-27T08:17:07.311Z,1021.28
2017-10-27T08:18:16.644Z,1021.29
2017-10-27T08:19:26.302Z,1021.34
2017-10-27T08:20:35.009Z,1021.34
2017-10-27T08:21:44.409Z,1021.42
2017-10-27T08:22:53.426Z,1021.46
2017-10-27T08:24:02.749Z,1021.47
2017-10-27T08:25:11.814Z,1021.5
2017-10-27T08:26:20.844Z,1021.55
2017-10-27T08:27:29.867Z,1021.51
2017-10-27T08:28:39.566Z,1021.61
2017-10-27T08:29:48.236Z,1021.55
2017-10-27T08:30:57.563Z,1021.56
2017-10-27T08:32:06.290Z,1021.53
2017-10-27T08:33:15.637Z,1021.58
2017-10-27T08:34:24.679Z,1021.63
2017-10-27T08:35:34.349Z,1021.58
2017-10-27T08:36:43.036Z,1021.58
2017-10-27T08:37:52.472Z,1021.53
2017-10-27T08:39:01.857Z,1021.52
2017-10-27T08:40:10.859Z,1021.49
2017-10-27T08:41:19.883Z,1021.52
2017-10-27T08:42:28.557Z,1021.54
2017-10-27T08:43:37.544Z,1021.57
2017-10-27T08:44:46.877Z,1021.59
2017-10-27T08:45:56.205Z,1021.57
2017-10-27T08:47:05.215Z,1021.52
2017-10-27T08:48:13.870Z,1021.63
2017-10-27T08:49:22.896Z,1021.58
2017-10-27T08:50:31.980Z,1021.64
2017-10-27T08:51:41.164Z,1021.67
2017-10-27T08:52:50.533Z,1021.67
2017-10-27T08:53:59.571Z,1021.65
2017-10-27T08:55:09.259Z,1021.69
2017-10-27T08:56:18.265Z,1021.68
2017-10-27T08:57:27.283Z,1021.72
2017-10-27T08:58:35.975Z,1021.74
2017-10-27T08:59:44.978Z,1021.77
2017-10-27T09:00:53.979Z,1021.75
2017-10-27T09:02:03.377Z,1021.81
2017-10-27T09:03:12.700Z,1021.92
2017-10-27T09:04:21.705Z,1021.9
2017-10-27T09:05:30.400Z,1021.95
2017-10-27T09:06:39.094Z,1021.91
2017-10-27T09:07:48.088Z,1022.01
2017-10-27T09:08:57.084Z,1021.95
2017-10-27T09:10:06.095Z,1021.96
2017-10-27T09:11:14.760Z,1022.03
2017-10-27T09:12:23.741Z,1021.99
2017-10-27T09:13:32.717Z,1022
2017-10-27T09:14:42.057Z,1022.09
2017-10-27T09:15:51.384Z,1022.02
2017-10-27T09:17:00.690Z,1022.07
2017-10-27T09:18:09.684Z,1022.02
2017-10-27T09:19:18.702Z,1022.08
2017-10-27T09:20:28.159Z,1022.11
2017-10-27T09:21:37.511Z,1022.08
2017-10-27T09:22:46.862Z,1022.05
2017-10-27T09:23:55.535Z,1022.14
2017-10-27T09:25:04.877Z,1022.15
2017-10-27T09:26:13.879Z,1022.14
2017-10-27T09:27:22.889Z,1022.12
2017-10-27T09:28:31.896Z,1022.15
2017-10-27T09:29:41.222Z,1022.18
2017-10-27T09:30:50.225Z,1022.19
2017-10-27T09:31:59.553Z,1022.2
2017-10-27T09:33:08.893Z,1022.27
2017-10-27T09:34:17.649Z,1022.27
2017-10-27T09:35:26.658Z,1022.26
2017-10-27T09:36:35.726Z,1022.27
2017-10-27T09:37:45.070Z,1022.31
2017-10-27T09:38:54.107Z,1022.33
2017-10-27T09:40:03.195Z,1022.35
2017-10-27T09:41:13.102Z,1022.32
2017-10-27T09:42:22.003Z,1022.45
2017-10-27T09:43:31.432Z,1022.42
2017-10-27T09:44:40.117Z,1022.47
2017-10-27T09:45:49.112Z,1022.51
2017-10-27T09:46:58.439Z,1022.56
2017-10-27T09:48:07.456Z,1022.59
2017-10-27T09:49:17.149Z,1022.57
2017-10-27T09:50:26.481Z,1022.59
2017-10-27T09:51:36.139Z,1022.72
2017-10-27T09:52:45.148Z,1022.62
2017-10-27T09:53:54.148Z,1022.75
2017-10-27T09:55:03.515Z,1022.76
2017-10-27T09:56:12.852Z,1022.69
2017-10-27T09:57:22.210Z,1022.81
2017-10-27T09:58:31.233Z,1022.79
2017-10-27T09:59:40.605Z,1022.8
2017-10-27T10:00:50.234Z,1022.85
2017-10-27T10:01:59.206Z,1022.93
2017-10-27T10:03:08.508Z,1022.99
2017-10-27T10:04:17.954Z,1022.94
2017-10-27T10:05:27.308Z,1023.01
2017-10-27T10:06:36.117Z,1023.01
2017-10-27T10:07:45.437Z,1023.03
2017-10-27T10:08:54.434Z,1023
2017-10-27T10:10:03.755Z,1023.03
2017-10-27T10:11:12.414Z,1023.1
2017-10-27T10:12:22.080Z,1023.09
2017-10-27T10:13:30.755Z,1023.04
2017-10-27T10:14:40.727Z,1023.13
2017-10-27T10:15:49.430Z,1023.13
2017-10-27T10:16:58.412Z,1023.21
2017-10-27T10:18:07.733Z,1023.14
2017-10-27T10:19:17.043Z,1023.3
2017-10-27T10:20:25.750Z,1023.27
2017-10-27T10:21:34.786Z,1023.3
2017-10-27T10:22:43.816Z,1023.31
2017-10-27T10:23:52.510Z,1023.35
2017-10-27T10:25:01.174Z,1023.36
2017-10-27T10:26:09.855Z,1023.32
2017-10-27T10:27:18.855Z,1023.35
2017-10-27T10:28:28.212Z,1023.35
2017-10-27T10:29:36.863Z,1023.28
2017-10-27T10:30:45.861Z,1023.18
2017-10-27T10:31:54.853Z,1023.24
2017-10-27T10:33:04.513Z,1023.23
2017-10-27T10:34:13.180Z,1023.28
2017-10-27T10:35:22.200Z,1023.25
2017-10-27T10:36:30.906Z,1023.34
2017-10-27T10:37:39.575Z,1023.2
2017-10-27T10:38:48.895Z,1023.26
2017-10-27T10:39:58.259Z,1023.21
2017-10-27T10:41:06.921Z,1023.2
2017-10-27T10:42:16.277Z,1023.15
2017-10-27T10:43:25.288Z,1023.16
2017-10-27T10:44:34.626Z,1023.14
2017-10-27T10:45:43.964Z,1023.16
2017-10-27T10:46:53.645Z,1023.22
2017-10-27T10:48:02.987Z,1023.27
2017-10-27T10:49:11.985Z,1023.21
2017-10-27T10:50:21.324Z,1023.31
2017-10-27T10:51:30.654Z,1023.21
2017-10-27T10:52:39.669Z,1023.23
2017-10-27T10:53:48.691Z,1023.29
2017-10-27T10:54:57.738Z,1023.25
2017-10-27T10:56:06.733Z,1023.26
2017-10-27T10:57:16.100Z,1023.34
2017-10-27T10:58:24.762Z,1023.33
2017-10-27T10:59:34.497Z,1023.27
2017-10-27T11:00:43.831Z,1023.33
2017-10-27T11:01:53.164Z,1023.3
2017-10-27T11:03:02.164Z,1023.31
2017-10-27T11:04:11.168Z,1023.25
2017-10-27T11:05:19.856Z,1023.29
2017-10-27T11:06:28.871Z,1023.33
2017-10-27T11:07:38.210Z,1023.41
2017-10-27T11:08:47.206Z,1023.39
2017-10-27T11:09:55.907Z,1023.4
2017-10-27T11:11:04.929Z,1023.38
2017-10-27T11:12:13.954Z,1023.44
2017-10-27T11:13:22.609Z,1023.43
2017-10-27T11:14:31.302Z,1023.43
2017-10-27T11:15:40.984Z,1023.48
2017-10-27T11:16:50.325Z,1023.43
2017-10-27T11:17:59.997Z,1023.43
2017-10-27T11:19:09.751Z,1023.48
2017-10-27T11:20:18.792Z,1023.36
2017-10-27T11:21:27.830Z,1023.39
2017-10-27T11:22:37.283Z,1023.4
2017-10-27T11:23:46.150Z,1023.39
2017-10-27T11:24:56.181Z,1023.42
2017-10-27T11:26:05.215Z,1023.43
2017-10-27T11:27:13.913Z,1023.4
2017-10-27T11:28:23.344Z,1023.37
2017-10-27T11:29:32.912Z,1023.35
2017-10-27T11:30:42.269Z,1023.38
2017-10-27T11:31:51.625Z,1023.39
2017-10-27T11:33:01.303Z,1023.42
2017-10-27T11:34:10.329Z,1023.42
2017-10-27T11:35:19.672Z,1023.39
2017-10-27T11:36:29.346Z,1023.4
2017-10-27T11:37:38.365Z,1023.42
2017-10-27T11:38:47.385Z,1023.3
2017-10-27T11:39:56.043Z,1023.33
2017-10-27T11:41:05.401Z,1023.34
2017-10-27T11:42:14.390Z,1023.23
2017-10-27T11:43:23.748Z,1023.29
2017-10-27T11:44:32.409Z,1023.3
2017-10-27T11:45:42.064Z,1023.27
2017-10-27T11:46:51.051Z,1023.23
2017-10-27T11:47:59.736Z,1023.14
2017-10-27T11:49:08.795Z,1023.21
2017-10-27T11:50:17.838Z,1023.24
2017-10-27T11:51:26.872Z,1023.29
2017-10-27T11:52:35.867Z,1023.23
2017-10-27T11:53:45.520Z,1023.16
2017-10-27T11:54:54.565Z,1023.3
2017-10-27T11:56:03.271Z,1023.24
2017-10-27T11:57:11.943Z,1023.3
2017-10-27T11:58:21.953Z,1023.27
2017-10-27T11:59:30.939Z,1023.26
2017-10-27T12:00:40.296Z,1023.28
2017-10-27T12:01:49.638Z,1023.22
2017-10-27T12:02:58.950Z,1023.25
2017-10-27T12:04:07.610Z,1023.23
2017-10-27T12:05:16.629Z,1023.28
2017-10-27T12:06:25.658Z,1023.3
2017-10-27T12:07:34.704Z,1023.36
2017-10-27T12:08:43.384Z,1023.37
2017-10-27T12:09:52.827Z,1023.38
2017-10-27T12:11:02.178Z,1023.41
2017-10-27T12:12:11.522Z,1023.4
2017-10-27T12:13:21.079Z,1023.4
2017-10-27T12:14:29.763Z,1023.4
2017-10-27T12:15:39.098Z,1023.38
2017-10-27T12:16:48.477Z,1023.38
2017-10-27T12:17:57.785Z,1023.42
2017-10-27T12:19:06.777Z,1023.4
2017-10-27T12:20:15.773Z,1023.39
2017-10-27T12:21:25.096Z,1023.44
2017-10-27T12:22:34.468Z,1023.42
2017-10-27T12:23:43.794Z,1023.46
2017-10-27T12:24:53.128Z,1023.44
2017-10-27T12:26:02.137Z,1023.4
2017-10-27T12:27:11.823Z,1023.38
2017-10-27T12:28:21.149Z,1023.33
2017-10-27T12:29:30.826Z,1023.37
2017-10-27T12:30:39.503Z,1023.41
2017-10-27T12:31:48.832Z,1023.45
2017-10-27T12:32:58.236Z,1023.46
2017-10-27T12:34:08.520Z,1023.55
2017-10-27T12:35:17.883Z,1023.64
2017-10-27T12:36:27.131Z,1023.61
2017-10-27T12:37:37.574Z,1023.53
2017-10-27T12:38:47.859Z,1023.48
2017-10-27T12:39:57.183Z,1023.45
2017-10-27T12:41:06.305Z,1023.47
2017-10-27T12:42:16.511Z,1023.46
2017-10-27T12:43:26.909Z,1023.4
2017-10-27T12:44:36.770Z,1023.4
2017-10-27T12:45:45.768Z,1023.41
2017-10-27T12:46:54.537Z,1023.48
2017-10-27T12:48:03.472Z,1023.46
2017-10-27T12:49:13.437Z,1023.43
2017-10-27T12:50:22.789Z,1023.48
2017-10-27T12:51:32.934Z,1023.47
2017-10-27T12:52:42.598Z,1023.47
2017-10-27T12:53:52.803Z,1023.5
2017-10-27T12:55:02.220Z,1023.57
2017-10-27T12:56:11.435Z,1023.65
2017-10-27T12:57:20.295Z,1023.63
2017-10-27T12:58:29.935Z,1023.66
2017-10-27T12:59:39.279Z,1023.68
2017-10-27T13:00:48.351Z,1023.71
2017-10-27T13:01:57.889Z,1023.79
2017-10-27T13:03:07.821Z,1023.84
2017-10-27T13:04:17.472Z,1023.77
2017-10-27T13:05:27.645Z,1023.8
2017-10-27T13:06:36.677Z,1023.8
2017-10-27T13:07:46.093Z,1023.75
2017-10-27T13:08:56.238Z,1023.79
2017-10-27T13:10:05.378Z,1023.84
2017-10-27T13:11:14.580Z,1023.8
2017-10-27T13:12:24.056Z,1023.82
2017-10-27T13:13:33.490Z,1023.85
2017-10-27T13:14:43.303Z,1023.9
2017-10-27T13:15:52.370Z,1023.89
2017-10-27T13:17:01.904Z,1023.89
2017-10-27T13:18:11.412Z,1023.86
2017-10-27T13:19:20.913Z,1023.93
2017-10-27T13:20:30.145Z,1023.89
2017-10-27T13:21:39.188Z,1023.85
2017-10-27T13:22:47.879Z,1023.88
2017-10-27T13:23:56.984Z,1023.89
2017-10-27T13:25:06.248Z,1023.95
2017-10-27T13:26:15.875Z,1023.84
2017-10-27T13:27:25.888Z,1023.86
2017-10-27T13:28:35.824Z,1023.86
2017-10-27T13:29:45.354Z,1023.86
2017-10-27T13:30:54.529Z,1023.91
2017-10-27T13:32:04.289Z,1023.91
2017-10-27T13:33:13.020Z,1023.94
2017-10-27T13:34:22.475Z,1023.93
2017-10-27T13:35:31.429Z,1023.9
2017-10-27T13:36:40.192Z,1023.88
2017-10-27T13:37:49.975Z,1023.92
2017-10-27T13:38:59.006Z,1023.92
2017-10-27T13:40:07.786Z,1024.05
2017-10-27T13:41:17.870Z,1023.96
2017-10-27T13:42:26.825Z,1023.98
2017-10-27T13:43:36.829Z,1023.96
2017-10-27T13:44:46.649Z,1023.91
2017-10-27T13:45:56.117Z,1023.98
2017-10-27T13:47:05.206Z,1024.05
2017-10-27T13:48:16.050Z,1024
2017-10-27T13:49:25.161Z,1024.01
2017-10-27T13:50:34.698Z,1023.99
2017-10-27T13:51:44.022Z,1024.04
2017-10-27T13:52:52.732Z,1024.07
2017-10-27T13:54:01.814Z,1024.07
2017-10-27T13:55:10.866Z,1024.09
2017-10-27T13:56:20.547Z,1024.11
2017-10-27T13:57:30.081Z,1024.13
2017-10-27T13:58:38.784Z,1024.19
2017-10-27T13:59:48.923Z,1024.14